Time;durP1;ratioP1;P1;durP2;ratioP2;P2;SDS_P1;SDS_P2;PMS_P1;PMS_P2;Temp;Humidity;BMP_temperature;BMP_pressure;BME280_temperature;BME280_humidity;BME280_pressure;Samples;Min_cycle;Max_cycle;Signal;HPM_P1;HPM_P2
2021/12/26 00:01:13;;;;;;;12.88;8.15;;;1.50;99.90;;;;;;477234;245;27468;-66
2021/12/26 00:03:14;;;;;;;11.70;7.62;;;1.50;99.90;;;;;;480232;245;27404;-66
2021/12/26 00:05:16;;;;;;;14.55;8.30;;;1.40;99.90;;;;;;481486;245;27480;-66
2021/12/26 00:07:17;;;;;;;12.45;7.43;;;1.30;99.90;;;;;;477042;245;27428;-67
2021/12/26 00:09:18;;;;;;;12.05;7.87;;;1.40;99.90;;;;;;478179;245;27409;-66
2021/12/26 00:11:19;;;;;;;14.32;8.38;;;1.50;99.90;;;;;;482475;245;27579;-66
2021/12/26 00:13:21;;;;;;;17.20;9.10;;;1.50;99.90;;;;;;480296;245;27496;-66
2021/12/26 00:15:22;;;;;;;16.73;8.73;;;1.50;99.90;;;;;;476911;245;27830;-66
2021/12/26 00:17:23;;;;;;;14.93;8.90;;;1.60;99.90;;;;;;476666;246;27883;-67
2021/12/26 00:19:24;;;;;;;17.12;8.82;;;1.50;99.90;;;;;;478550;245;27400;-66
2021/12/26 00:21:26;;;;;;;14.52;8.90;;;1.50;99.90;;;;;;473224;249;27421;-66
2021/12/26 00:23:27;;;;;;;15.40;9.00;;;1.60;99.90;;;;;;471858;249;27417;-66
2021/12/26 00:25:28;;;;;;;14.05;8.45;;;1.60;99.90;;;;;;471568;249;27532;-66
2021/12/26 00:27:30;;;;;;;14.35;7.93;;;1.50;99.90;;;;;;471764;249;27528;-67
2021/12/26 00:29:31;;;;;;;14.73;8.25;;;1.60;99.90;;;;;;469968;249;27528;-66
2021/12/26 00:31:32;;;;;;;14.13;7.75;;;1.60;99.90;;;;;;472476;249;27612;-66
2021/12/26 00:33:33;;;;;;;15.55;9.60;;;1.70;99.90;;;;;;471055;250;27605;-66
2021/12/26 00:35:35;;;;;;;14.80;8.85;;;1.70;99.90;;;;;;469331;249;27383;-66
2021/12/26 00:37:36;;;;;;;14.57;8.90;;;1.60;99.90;;;;;;472277;249;27550;-66
2021/12/26 00:39:37;;;;;;;15.85;8.48;;;1.60;99.90;;;;;;471849;249;27551;-66
2021/12/26 00:41:39;;;;;;;14.15;8.43;;;1.60;99.90;;;;;;472469;250;27520;-65
2021/12/26 00:43:40;;;;;;;18.45;9.60;;;1.60;99.90;;;;;;465512;255;27981;-66
2021/12/26 00:45:41;;;;;;;14.57;8.40;;;1.60;99.90;;;;;;476009;247;28078;-66
2021/12/26 00:47:42;;;;;;;15.32;8.45;;;1.50;99.90;;;;;;475974;250;27577;-66
2021/12/26 00:49:43;;;;;;;15.85;9.23;;;1.50;99.90;;;;;;476050;250;27518;-66
2021/12/26 00:51:45;;;;;;;12.90;8.20;;;1.60;99.90;;;;;;475990;250;27618;-66
2021/12/26 00:53:46;;;;;;;12.37;7.78;;;1.50;99.90;;;;;;476041;250;27563;-66
2021/12/26 00:55:48;;;;;;;12.30;7.80;;;1.50;99.90;;;;;;476018;250;27564;-66
2021/12/26 00:57:48;;;;;;;14.30;8.52;;;1.60;99.90;;;;;;475925;250;27669;-66
2021/12/26 00:59:50;;;;;;;12.93;7.95;;;1.60;99.90;;;;;;476041;250;27592;-66
2021/12/26 01:01:51;;;;;;;12.00;7.53;;;1.50;99.90;;;;;;476068;250;27606;-66
2021/12/26 01:03:52;;;;;;;10.95;7.60;;;1.60;99.90;;;;;;476047;250;28022;-66
2021/12/26 01:05:53;;;;;;;13.10;8.27;;;1.60;99.90;;;;;;476047;247;28065;-66
2021/12/26 01:07:59;;;;;;;11.07;6.55;;;1.70;99.90;;;;;;476035;250;27561;-66
2021/12/26 01:09:59;;;;;;;11.25;7.43;;;1.80;99.90;;;;;;475867;250;27558;-66
2021/12/26 01:12:10;;;;;;;13.70;8.20;;;1.80;99.90;;;;;;476071;250;27512;-66
2021/12/26 01:14:01;;;;;;;14.35;8.07;;;1.80;99.90;;;;;;475887;250;28144;-66
2021/12/26 01:16:02;;;;;;;14.18;7.32;;;1.80;99.90;;;;;;476060;250;27969;-66
2021/12/26 01:18:04;;;;;;;17.50;8.85;;;1.70;99.90;;;;;;476019;250;27617;-66
2021/12/26 01:20:07;;;;;;;17.10;9.07;;;1.70;99.90;;;;;;476161;243;27558;-66
2021/12/26 01:22:06;;;;;;;14.60;8.55;;;1.80;99.90;;;;;;489563;243;27371;-66
2021/12/26 01:24:08;;;;;;;15.65;8.23;;;1.70;99.90;;;;;;489624;242;27410;-66
2021/12/26 01:26:09;;;;;;;15.98;7.97;;;1.80;99.90;;;;;;483900;242;27392;-66
2021/12/26 01:28:10;;;;;;;19.05;9.20;;;1.80;99.90;;;;;;475944;250;28592;-66
2021/12/26 01:30:11;;;;;;;16.70;9.48;;;1.80;99.90;;;;;;473065;250;27931;-66
2021/12/26 01:32:13;;;;;;;15.63;7.72;;;1.70;99.90;;;;;;475971;250;28130;-66
2021/12/26 01:34:14;;;;;;;15.90;9.20;;;1.70;99.90;;;;;;465540;254;36429;-66
2021/12/26 01:36:15;;;;;;;12.85;8.18;;;1.70;99.90;;;;;;471398;250;36385;-66
2021/12/26 01:38:16;;;;;;;13.32;8.57;;;1.80;99.90;;;;;;471873;250;36152;-66
2021/12/26 01:40:18;;;;;;;13.65;8.20;;;1.70;99.90;;;;;;469004;250;36293;-66
2021/12/26 01:42:19;;;;;;;11.07;7.60;;;1.80;99.90;;;;;;468956;251;36475;-66
2021/12/26 01:44:21;;;;;;;11.98;7.72;;;1.80;99.90;;;;;;471873;250;36328;-66
2021/12/26 01:46:22;;;;;;;10.10;7.55;;;1.80;99.90;;;;;;463050;254;47598;-66
2021/12/26 01:48:24;;;;;;;11.23;7.87;;;1.70;99.90;;;;;;471369;250;36379;-66
2021/12/26 01:50:25;;;;;;;11.65;7.95;;;1.70;99.90;;;;;;471838;250;47201;-66
2021/12/26 01:52:26;;;;;;;11.10;7.70;;;1.80;99.90;;;;;;469018;250;36247;-66
2021/12/26 01:54:33;;;;;;;10.82;7.37;;;1.80;99.90;;;;;;471939;250;36385;-66
2021/12/26 01:56:29;;;;;;;11.18;7.55;;;1.80;99.90;;;;;;462639;254;36552;-66
2021/12/26 01:58:30;;;;;;;10.50;7.35;;;1.90;99.90;;;;;;475445;250;27579;-66
2021/12/26 02:00:31;;;;;;;11.77;8.30;;;1.90;99.90;;;;;;475910;249;27543;-66
2021/12/26 02:02:32;;;;;;;11.25;7.82;;;1.90;99.90;;;;;;473007;250;27937;-66
2021/12/26 02:04:34;;;;;;;11.23;6.70;;;2.00;99.90;;;;;;475974;250;28139;-66
2021/12/26 02:06:35;;;;;;;10.48;7.57;;;2.00;99.90;;;;;;467059;254;27907;-66
2021/12/26 02:08:36;;;;;;;12.43;7.43;;;1.90;99.90;;;;;;475458;250;27635;-66
2021/12/26 02:10:37;;;;;;;9.38;6.80;;;2.00;99.90;;;;;;475894;250;27628;-66
2021/12/26 02:12:39;;;;;;;12.98;6.90;;;1.90;99.90;;;;;;473022;250;27528;-66
2021/12/26 02:14:40;;;;;;;9.77;6.97;;;1.80;99.90;;;;;;475998;250;27523;-66
2021/12/26 02:16:41;;;;;;;12.48;7.50;;;1.90;99.90;;;;;;467069;254;27482;-67
2021/12/26 02:18:42;;;;;;;13.35;8.10;;;1.90;99.90;;;;;;475439;250;27900;-66
2021/12/26 02:21:01;;;;;;;13.02;7.35;;;1.90;99.90;;;;;;475916;250;27559;-66
2021/12/26 02:22:50;;;;;;;10.75;7.22;;;1.90;99.90;;;;;;471461;251;27516;-66
2021/12/26 02:25:12;;;;;;;11.63;7.20;;;1.90;99.90;;;;;;475641;250;27644;-66
2021/12/26 02:29:16;;;;;;;10.90;6.85;;;2.00;99.90;;;;;;475459;250;27553;-68
2021/12/26 02:31:18;;;;;;;12.35;7.15;;;1.90;99.90;;;;;;475925;250;27528;-66
2021/12/26 02:33:19;;;;;;;11.02;6.60;;;1.90;99.90;;;;;;467008;254;27969;-66
2021/12/26 02:35:20;;;;;;;11.90;7.50;;;1.90;99.90;;;;;;475480;250;27944;-66
2021/12/26 02:37:21;;;;;;;10.25;7.05;;;1.80;99.90;;;;;;475963;250;28108;-66
2021/12/26 02:39:22;;;;;;;11.55;7.28;;;1.80;99.90;;;;;;467098;254;27426;-66
2021/12/26 02:41:24;;;;;;;12.27;7.03;;;1.70;99.90;;;;;;475545;250;27591;-66
2021/12/26 02:43:25;;;;;;;10.50;7.20;;;1.80;99.90;;;;;;475930;250;27634;-66
2021/12/26 02:45:26;;;;;;;10.55;6.50;;;2.00;99.90;;;;;;467066;254;27518;-66
2021/12/26 02:47:27;;;;;;;9.55;6.85;;;2.00;99.90;;;;;;475447;250;27551;-66
2021/12/26 02:49:29;;;;;;;9.68;6.80;;;2.00;99.90;;;;;;475966;250;27923;-66
2021/12/26 02:51:30;;;;;;;10.65;7.30;;;1.90;99.90;;;;;;467180;254;27502;-66
2021/12/26 02:53:31;;;;;;;8.20;6.05;;;2.00;99.90;;;;;;475543;250;27540;-66
2021/12/26 02:55:33;;;;;;;12.48;6.75;;;2.00;99.90;;;;;;476063;250;27951;-66
2021/12/26 02:57:34;;;;;;;9.80;6.40;;;2.00;99.90;;;;;;467157;254;28083;-66
2021/12/26 02:59:35;;;;;;;14.55;6.43;;;2.00;99.90;;;;;;475566;250;28709;-65
2021/12/26 03:01:36;;;;;;;9.80;6.22;;;2.00;99.90;;;;;;476042;250;27588;-66
2021/12/26 03:03:37;;;;;;;10.25;7.10;;;2.00;99.90;;;;;;473161;250;27546;-66
2021/12/26 03:05:39;;;;;;;8.52;6.35;;;2.10;99.90;;;;;;475964;250;27647;-66
2021/12/26 03:07:40;;;;;;;9.70;6.53;;;2.00;99.90;;;;;;467170;254;27562;-66
2021/12/26 03:09:46;;;;;;;9.07;6.70;;;2.00;99.90;;;;;;475521;250;27536;-66
2021/12/26 03:11:45;;;;;;;12.75;7.00;;;2.00;99.90;;;;;;475860;249;27624;-66
2021/12/26 03:13:44;;;;;;;10.30;6.62;;;2.00;99.90;;;;;;467135;254;27605;-66
2021/12/26 03:15:45;;;;;;;9.65;6.80;;;2.00;99.90;;;;;;475546;250;27514;-66
2021/12/26 03:17:46;;;;;;;11.18;6.75;;;2.00;99.90;;;;;;475929;250;27536;-68
2021/12/26 03:19:47;;;;;;;9.60;7.10;;;2.00;99.90;;;;;;473029;250;28041;-66
2021/12/26 03:21:49;;;;;;;10.77;7.70;;;2.10;99.90;;;;;;475888;250;28030;-66
2021/12/26 03:23:50;;;;;;;9.95;6.97;;;2.10;99.90;;;;;;467061;254;28022;-66
2021/12/26 03:25:51;;;;;;;9.95;6.68;;;2.10;99.90;;;;;;475510;250;27463;-66
2021/12/26 03:27:52;;;;;;;9.65;7.03;;;2.20;99.90;;;;;;476030;250;27501;-66
2021/12/26 03:29:54;;;;;;;10.85;6.93;;;2.10;99.90;;;;;;473157;250;27524;-66
2021/12/26 03:31:55;;;;;;;10.48;7.18;;;2.10;99.90;;;;;;476041;250;27655;-66
2021/12/26 03:33:56;;;;;;;8.50;6.50;;;2.10;99.90;;;;;;467202;254;27590;-66
2021/12/26 03:35:57;;;;;;;11.82;6.90;;;2.10;99.90;;;;;;475561;250;27609;-66
2021/12/26 03:37:59;;;;;;;13.40;7.85;;;2.10;99.90;;;;;;476017;250;27541;-66
2021/12/26 03:40:00;;;;;;;11.27;7.18;;;2.10;99.90;;;;;;473145;250;27444;-66
2021/12/26 03:42:01;;;;;;;10.45;6.93;;;2.10;99.90;;;;;;476050;250;27958;-66
2021/12/26 03:44:02;;;;;;;8.60;6.37;;;2.30;99.90;;;;;;467174;254;28141;-66
2021/12/26 03:46:04;;;;;;;7.28;5.20;;;2.30;99.90;;;;;;475571;250;28141;-66
2021/12/26 03:48:05;;;;;;;9.27;6.15;;;2.30;99.90;;;;;;476000;250;27956;-66
2021/12/26 03:50:06;;;;;;;8.52;5.78;;;2.30;99.90;;;;;;473160;250;27543;-66
2021/12/26 03:52:07;;;;;;;9.32;6.18;;;2.30;99.90;;;;;;476047;250;27627;-66
2021/12/26 03:54:09;;;;;;;8.90;5.95;;;2.20;99.90;;;;;;467188;254;27683;-66
2021/12/26 03:56:10;;;;;;;11.00;7.15;;;2.10;99.90;;;;;;475602;250;27559;-66
2021/12/26 03:58:11;;;;;;;10.65;7.00;;;2.10;99.90;;;;;;476098;250;27494;-66
2021/12/26 04:00:14;;;;;;;11.15;6.95;;;1.90;99.90;;;;;;467192;254;27583;-66
2021/12/26 04:02:15;;;;;;;10.35;6.30;;;1.90;99.90;;;;;;475484;249;27508;-66
2021/12/26 04:04:15;;;;;;;10.85;7.47;;;1.90;99.90;;;;;;475973;249;27547;-66
2021/12/26 04:06:16;;;;;;;12.45;8.13;;;2.00;99.90;;;;;;467174;254;28128;-66
2021/12/26 04:08:17;;;;;;;10.52;7.18;;;1.90;99.90;;;;;;475576;250;27972;-66
2021/12/26 04:10:19;;;;;;;12.80;7.87;;;1.90;99.90;;;;;;476031;250;28019;-66
2021/12/26 04:12:20;;;;;;;10.85;7.20;;;2.00;99.90;;;;;;472964;250;27412;-66
2021/12/26 04:14:21;;;;;;;15.27;8.65;;;2.00;99.90;;;;;;476057;250;27564;-66
2021/12/26 04:16:22;;;;;;;11.98;8.23;;;2.00;99.90;;;;;;467155;254;27559;-66
2021/12/26 04:18:24;;;;;;;13.80;8.27;;;2.10;99.90;;;;;;475464;250;27565;-66
2021/12/26 04:20:25;;;;;;;13.00;7.80;;;2.10;99.90;;;;;;485012;245;27389;-66
2021/12/26 04:22:26;;;;;;;11.65;7.07;;;2.20;99.90;;;;;;485434;245;27799;-66
2021/12/26 04:24:27;;;;;;;11.88;7.30;;;2.30;99.90;;;;;;485379;245;27436;-66
2021/12/26 04:26:29;;;;;;;8.95;5.97;;;2.30;99.90;;;;;;479715;245;28440;-66
2021/12/26 04:28:30;;;;;;;9.23;6.03;;;2.40;99.90;;;;;;467105;254;27899;-67
2021/12/26 04:30:31;;;;;;;11.60;6.55;;;2.40;99.90;;;;;;475543;250;28139;-66
2021/12/26 04:32:32;;;;;;;10.25;6.30;;;2.40;99.90;;;;;;475995;243;27997;-66
2021/12/26 04:34:34;;;;;;;8.27;6.15;;;2.40;99.90;;;;;;473133;250;27441;-66
2021/12/26 04:36:35;;;;;;;10.65;6.53;;;2.50;99.90;;;;;;476036;250;27586;-66
2021/12/26 04:38:36;;;;;;;10.15;7.05;;;2.50;99.90;;;;;;472052;249;27459;-66
2021/12/26 04:40:37;;;;;;;10.98;7.32;;;2.40;99.90;;;;;;477574;246;27539;-66
2021/12/26 04:42:40;;;;;;;14.00;7.78;;;2.30;99.90;;;;;;485376;245;27520;-66
2021/12/26 04:44:40;;;;;;;16.27;8.80;;;2.30;99.90;;;;;;485386;245;27498;-66
2021/12/26 04:46:41;;;;;;;13.18;7.55;;;2.40;99.90;;;;;;485355;245;27417;-66
2021/12/26 04:48:43;;;;;;;12.37;7.45;;;2.40;99.90;;;;;;485407;245;27927;-66
2021/12/26 04:50:44;;;;;;;12.32;7.85;;;2.50;99.90;;;;;;485367;245;27905;-66
2021/12/26 04:52:45;;;;;;;12.98;7.22;;;2.40;99.90;;;;;;485366;245;27875;-66
2021/12/26 04:54:46;;;;;;;16.08;8.63;;;2.30;99.90;;;;;;480171;245;27457;-65
2021/12/26 04:56:48;;;;;;;11.98;7.53;;;2.30;99.90;;;;;;478325;245;27615;-65
2021/12/26 04:58:49;;;;;;;12.90;8.15;;;2.30;99.90;;;;;;474843;250;27633;-66
2021/12/26 05:00:50;;;;;;;13.20;8.50;;;2.20;99.90;;;;;;474843;250;27540;-66
2021/12/26 05:02:51;;;;;;;11.80;7.93;;;2.30;99.90;;;;;;474822;250;27530;-66
2021/12/26 05:04:53;;;;;;;10.35;6.50;;;2.40;99.90;;;;;;474871;250;27589;-66
2021/12/26 05:06:54;;;;;;;10.95;7.47;;;2.30;99.90;;;;;;474810;250;27910;-66
2021/12/26 05:08:55;;;;;;;11.73;7.53;;;2.40;99.90;;;;;;474858;250;27942;-66
2021/12/26 05:10:56;;;;;;;10.90;7.30;;;2.40;99.90;;;;;;474852;250;28168;-66
2021/12/26 05:12:58;;;;;;;12.15;7.75;;;2.40;99.90;;;;;;474818;250;28106;-66
2021/12/26 05:15:01;;;;;;;14.93;8.30;;;2.40;99.90;;;;;;474826;250;27622;-66
2021/12/26 05:17:00;;;;;;;10.75;6.95;;;2.40;99.90;;;;;;474764;250;27548;-66
2021/12/26 05:19:01;;;;;;;13.77;8.00;;;2.40;99.90;;;;;;474855;250;27503;-66
2021/12/26 05:21:03;;;;;;;10.80;7.62;;;2.40;99.90;;;;;;474854;250;27540;-66
2021/12/26 05:23:04;;;;;;;10.88;6.55;;;2.40;99.90;;;;;;474815;250;27616;-66
2021/12/26 05:25:06;;;;;;;11.52;7.30;;;2.40;99.90;;;;;;474863;250;27555;-67
2021/12/26 05:27:07;;;;;;;9.10;5.82;;;2.40;99.90;;;;;;475374;250;27507;-65
2021/12/26 05:29:08;;;;;;;9.35;6.53;;;2.40;99.90;;;;;;467154;254;27442;-66
2021/12/26 05:31:09;;;;;;;9.90;6.55;;;2.40;99.90;;;;;;475570;250;27664;-65
2021/12/26 05:33:10;;;;;;;13.43;8.25;;;2.20;99.90;;;;;;476005;250;28008;-66
2021/12/26 05:35:12;;;;;;;11.82;7.32;;;2.10;99.90;;;;;;475390;247;27982;-65
2021/12/26 05:37:13;;;;;;;15.45;8.70;;;2.00;99.90;;;;;;476976;247;27413;-66
2021/12/26 05:39:14;;;;;;;13.07;8.45;;;1.90;99.90;;;;;;480895;244;27476;-66
2021/12/26 05:41:15;;;;;;;13.65;8.18;;;2.00;99.90;;;;;;480938;245;27476;-66
2021/12/26 05:43:17;;;;;;;13.93;8.30;;;2.00;99.90;;;;;;475309;249;27560;-66
2021/12/26 05:45:18;;;;;;;15.63;8.85;;;2.00;99.90;;;;;;482708;246;27501;-66
2021/12/26 05:47:19;;;;;;;16.50;9.85;;;2.10;99.90;;;;;;488897;243;27527;-66
2021/12/26 05:49:20;;;;;;;13.62;8.98;;;2.10;99.90;;;;;;488816;243;27368;-65
2021/12/26 05:51:22;;;;;;;13.88;7.72;;;2.10;99.90;;;;;;480521;247;27487;-66
2021/12/26 05:53:23;;;;;;;15.43;8.45;;;2.10;99.90;;;;;;480501;247;27971;-67
2021/12/26 05:55:24;;;;;;;14.27;8.85;;;2.10;99.90;;;;;;480490;247;27873;-66
2021/12/26 05:57:25;;;;;;;15.68;8.77;;;2.00;99.90;;;;;;480521;247;28996;-66
2021/12/26 05:59:27;;;;;;;15.20;9.13;;;2.10;99.90;;;;;;480541;247;27478;-66
2021/12/26 06:01:28;;;;;;;11.38;7.65;;;2.10;99.90;;;;;;480496;247;27602;-66
2021/12/26 06:03:29;;;;;;;13.05;7.62;;;2.10;99.90;;;;;;480510;247;27613;-66
2021/12/26 06:05:30;;;;;;;14.10;8.23;;;2.00;99.90;;;;;;480485;247;27455;-66
2021/12/26 06:07:32;;;;;;;14.48;9.18;;;2.00;99.90;;;;;;480506;247;27542;-67
2021/12/26 06:09:33;;;;;;;15.32;8.57;;;2.00;99.90;;;;;;480505;247;27514;-66
2021/12/26 06:11:34;;;;;;;14.93;8.40;;;2.10;99.90;;;;;;480457;247;27427;-67
2021/12/26 06:13:35;;;;;;;14.90;7.72;;;2.20;99.90;;;;;;480523;247;27973;-66
2021/12/26 06:15:37;;;;;;;11.95;6.90;;;2.30;99.90;;;;;;480540;247;28017;-67
2021/12/26 06:17:38;;;;;;;11.75;7.57;;;2.20;99.90;;;;;;472863;247;28037;-67
2021/12/26 06:19:39;;;;;;;12.40;7.65;;;2.20;99.90;;;;;;466814;254;27472;-67
2021/12/26 06:21:40;;;;;;;12.57;7.62;;;2.20;99.90;;;;;;474828;250;27647;-67
2021/12/26 06:23:43;;;;;;;14.45;7.93;;;2.30;99.90;;;;;;475637;245;27485;-66
2021/12/26 06:25:43;;;;;;;13.40;8.10;;;2.40;99.90;;;;;;478303;248;27384;-67
2021/12/26 06:27:44;;;;;;;13.20;8.23;;;2.40;99.90;;;;;;467123;254;27555;-67
2021/12/26 06:29:45;;;;;;;13.15;7.95;;;2.30;99.90;;;;;;475548;250;27595;-67
2021/12/26 06:31:47;;;;;;;15.18;9.35;;;2.40;99.90;;;;;;475966;250;27608;-67
2021/12/26 06:33:48;;;;;;;18.00;9.00;;;2.40;99.90;;;;;;473111;251;27965;-67
2021/12/26 06:35:52;;;;;;;13.30;8.07;;;2.40;99.90;;;;;;476059;250;28161;-66
2021/12/26 06:37:53;;;;;;;15.10;9.13;;;2.30;99.90;;;;;;467127;254;28007;-67
2021/12/26 06:39:55;;;;;;;14.50;9.35;;;2.30;99.90;;;;;;475583;250;28006;-66
2021/12/26 06:41:56;;;;;;;14.73;8.75;;;2.30;99.90;;;;;;476001;250;27483;-66
2021/12/26 06:43:57;;;;;;;14.68;9.05;;;2.40;99.90;;;;;;473097;250;27445;-67
2021/12/26 06:45:58;;;;;;;14.85;9.30;;;2.40;99.90;;;;;;476051;250;28769;-67
2021/12/26 06:48:02;;;;;;;12.57;8.10;;;2.40;99.90;;;;;;467134;254;27953;-67
2021/12/26 06:50:01;;;;;;;16.67;9.65;;;2.40;99.90;;;;;;475429;250;27565;-66
2021/12/26 06:52:02;;;;;;;15.30;8.68;;;2.50;99.90;;;;;;476017;250;27488;-66
2021/12/26 06:54:03;;;;;;;15.70;9.63;;;2.40;99.90;;;;;;467115;254;27475;-66
2021/12/26 06:56:05;;;;;;;15.35;8.10;;;2.40;99.90;;;;;;475542;250;27531;-67
2021/12/26 06:58:06;;;;;;;15.07;8.82;;;2.40;99.90;;;;;;476078;250;27515;-66
2021/12/26 07:00:07;;;;;;;14.65;8.48;;;2.50;99.90;;;;;;467132;254;27474;-66
2021/12/26 07:02:08;;;;;;;13.35;8.48;;;2.50;99.90;;;;;;475536;250;27558;-67
2021/12/26 07:04:10;;;;;;;18.77;10.18;;;2.50;99.90;;;;;;475970;250;27548;-66
2021/12/26 07:06:11;;;;;;;14.65;8.57;;;2.50;99.90;;;;;;473091;250;28175;-66
2021/12/26 07:08:12;;;;;;;16.67;9.60;;;2.40;99.90;;;;;;476065;250;27975;-67
2021/12/26 07:10:14;;;;;;;16.10;9.50;;;2.40;99.90;;;;;;467115;254;27550;-67
2021/12/26 07:12:15;;;;;;;12.93;8.65;;;2.40;99.90;;;;;;477955;245;27452;-66
2021/12/26 07:14:16;;;;;;;14.90;9.18;;;2.40;99.90;;;;;;473802;249;27582;-66
2021/12/26 07:16:17;;;;;;;16.77;9.00;;;2.40;99.90;;;;;;482681;246;28187;-66
2021/12/26 07:18:19;;;;;;;16.20;9.48;;;2.40;99.90;;;;;;485388;243;27966;-72
2021/12/26 07:20:20;;;;;;;14.18;8.73;;;2.50;99.90;;;;;;468632;254;27563;-70
2021/12/26 07:22:21;;;;;;;13.05;8.30;;;2.50;99.90;;;;;;479525;245;27519;-69
2021/12/26 07:24:22;;;;;;;16.77;9.02;;;2.50;99.90;;;;;;475631;249;27571;-70
2021/12/26 07:26:24;;;;;;;11.88;7.80;;;2.60;99.90;;;;;;476220;249;27516;-73
2021/12/26 07:28:25;;;;;;;12.25;7.40;;;2.70;99.90;;;;;;466954;254;27606;-71
2021/12/26 07:30:26;;;;;;;12.30;7.70;;;2.80;99.90;;;;;;475540;250;28047;-70
2021/12/26 07:32:27;;;;;;;9.82;6.68;;;2.80;99.90;;;;;;476017;250;27968;-70
2021/12/26 07:34:29;;;;;;;10.35;6.75;;;2.80;99.90;;;;;;473166;250;28103;-70
2021/12/26 07:36:30;;;;;;;9.93;6.90;;;2.80;99.90;;;;;;476051;250;27548;-70
2021/12/26 07:38:31;;;;;;;11.50;7.50;;;2.70;99.90;;;;;;467165;254;27662;-69
2021/12/26 07:40:32;;;;;;;11.25;7.47;;;2.70;99.90;;;;;;475516;250;27998;-70
2021/12/26 07:42:34;;;;;;;13.38;8.50;;;2.70;99.90;;;;;;475982;250;28111;-69
2021/12/26 07:44:35;;;;;;;14.18;8.85;;;2.70;99.90;;;;;;473156;250;27561;-69
2021/12/26 07:46:36;;;;;;;13.75;8.07;;;2.70;99.90;;;;;;473068;251;27565;-70
2021/12/26 07:48:37;;;;;;;12.80;7.97;;;2.80;99.90;;;;;;476034;250;27503;-69
2021/12/26 07:50:39;;;;;;;14.70;8.38;;;2.80;99.90;;;;;;467951;249;27678;-70
2021/12/26 07:52:42;;;;;;;10.88;7.25;;;2.90;99.90;;;;;;476549;249;27583;-69
2021/12/26 07:54:42;;;;;;;14.23;8.13;;;2.90;99.90;;;;;;476599;249;27483;-70
2021/12/26 07:56:43;;;;;;;12.00;7.32;;;2.90;99.90;;;;;;474267;249;27603;-70
2021/12/26 07:58:44;;;;;;;9.80;6.68;;;2.90;99.90;;;;;;468252;254;27446;-70
2021/12/26 08:00:45;;;;;;;9.95;6.72;;;3.00;99.90;;;;;;471403;245;27909;-69
2021/12/26 08:02:46;;;;;;;8.60;6.03;;;3.10;99.90;;;;;;483635;245;28967;-69
2021/12/26 08:04:48;;;;;;;8.77;6.05;;;3.10;99.90;;;;;;484428;245;27837;-69
2021/12/26 08:06:49;;;;;;;11.00;6.68;;;3.10;99.90;;;;;;484946;245;27511;-69
2021/12/26 08:08:50;;;;;;;8.30;6.28;;;3.10;99.90;;;;;;484990;245;27392;-70
2021/12/26 08:10:51;;;;;;;8.55;6.05;;;3.10;99.90;;;;;;485020;245;27419;-70
2021/12/26 08:12:59;;;;;;;9.85;6.68;;;3.10;99.90;;;;;;485001;245;28733;-69
2021/12/26 08:14:56;;;;;;;10.07;7.25;;;3.10;99.90;;;;;;484457;245;27433;-69
2021/12/26 08:16:57;;;;;;;11.52;6.72;;;3.10;99.90;;;;;;485011;245;27643;-69
2021/12/26 08:19:01;;;;;;;10.23;6.82;;;3.10;99.90;;;;;;485022;245;27494;-69
2021/12/26 08:20:59;;;;;;;8.15;5.22;;;3.10;99.90;;;;;;484787;242;27447;-70
2021/12/26 08:23:01;;;;;;;12.27;7.55;;;3.10;99.90;;;;;;484987;245;27474;-69
2021/12/26 08:25:02;;;;;;;8.73;6.25;;;3.10;99.90;;;;;;484959;245;27440;-70
2021/12/26 08:27:03;;;;;;;10.27;6.32;;;3.10;99.90;;;;;;478078;245;27555;-70
2021/12/26 08:29:05;;;;;;;8.43;5.90;;;3.10;99.90;;;;;;476922;249;27512;-69
2021/12/26 08:31:06;;;;;;;8.13;5.32;;;3.10;99.90;;;;;;480993;245;27473;-70
2021/12/26 08:33:07;;;;;;;7.95;5.87;;;3.20;99.90;;;;;;484974;244;27860;-69
2021/12/26 08:35:08;;;;;;;8.90;6.03;;;3.10;99.90;;;;;;484975;245;27917;-70
2021/12/26 08:37:10;;;;;;;7.80;5.78;;;3.20;99.90;;;;;;485027;245;27926;-70
2021/12/26 08:39:11;;;;;;;8.52;6.07;;;3.20;99.90;;;;;;485013;245;28021;-69
2021/12/26 08:41:12;;;;;;;6.72;5.35;;;3.20;99.90;;;;;;484977;245;27491;-69
2021/12/26 08:43:13;;;;;;;6.78;5.07;;;3.30;99.90;;;;;;484977;245;28613;-69
2021/12/26 08:45:15;;;;;;;5.05;4.22;;;3.30;99.90;;;;;;484982;245;27501;-69
2021/12/26 08:47:16;;;;;;;6.30;4.55;;;3.40;99.90;;;;;;484669;245;27483;-69
2021/12/26 08:49:17;;;;;;;7.35;4.60;;;3.40;99.90;;;;;;483641;245;27476;-69
2021/12/26 08:51:19;;;;;;;5.62;4.53;;;3.50;99.90;;;;;;483645;246;27519;-69
2021/12/26 08:53:20;;;;;;;5.30;4.45;;;3.60;99.90;;;;;;483667;245;27440;-69
2021/12/26 08:55:23;;;;;;;4.75;3.80;;;3.60;99.90;;;;;;483661;245;27465;-69
2021/12/26 08:57:22;;;;;;;6.35;4.65;;;3.60;99.90;;;;;;483528;245;27424;-69
2021/12/26 08:59:29;;;;;;;4.72;3.62;;;3.60;99.90;;;;;;483641;245;27994;-69
2021/12/26 09:01:25;;;;;;;4.07;3.53;;;3.70;99.90;;;;;;483407;245;27912;-68
2021/12/26 09:03:26;;;;;;;3.92;3.58;;;3.70;99.90;;;;;;483673;245;28023;-70
2021/12/26 09:05:28;;;;;;;5.28;4.40;;;3.80;99.90;;;;;;483642;245;27939;-69
2021/12/26 09:07:29;;;;;;;4.05;3.40;;;3.90;99.90;;;;;;483628;245;27429;-69
2021/12/26 09:09:30;;;;;;;3.92;3.53;;;3.90;99.90;;;;;;483655;243;27792;-70
2021/12/26 09:11:36;;;;;;;5.28;3.25;;;3.90;99.90;;;;;;483689;245;27392;-69
2021/12/26 09:13:37;;;;;;;3.42;3.12;;;3.90;99.90;;;;;;483318;245;27436;-69
2021/12/26 09:15:35;;;;;;;3.22;2.92;;;3.90;99.90;;;;;;483303;245;27442;-69
2021/12/26 09:17:36;;;;;;;3.42;3.12;;;4.10;99.90;;;;;;484058;245;27338;-68
2021/12/26 09:19:37;;;;;;;4.45;3.90;;;4.10;99.90;;;;;;482212;245;27469;-69
2021/12/26 09:21:39;;;;;;;5.60;3.70;;;4.00;99.90;;;;;;485004;245;27850;-70
2021/12/26 09:23:40;;;;;;;5.60;4.05;;;3.90;99.90;;;;;;484960;245;27946;-69
2021/12/26 09:25:45;;;;;;;4.45;3.53;;;3.90;99.90;;;;;;483539;245;27525;-69
2021/12/26 09:27:43;;;;;;;5.80;4.20;;;3.80;99.90;;;;;;474997;249;27519;-69
2021/12/26 09:29:44;;;;;;;6.68;4.43;;;3.80;99.90;;;;;;468496;254;27614;-68
2021/12/26 09:31:46;;;;;;;5.05;3.95;;;3.90;99.90;;;;;;468483;254;27634;-70
2021/12/26 09:33:47;;;;;;;5.72;4.55;;;3.90;99.90;;;;;;468391;253;29055;-69
2021/12/26 09:35:48;;;;;;;6.45;4.95;;;3.90;99.90;;;;;;468476;254;27516;-69
2021/12/26 09:37:50;;;;;;;5.32;4.32;;;3.90;99.90;;;;;;468428;254;28038;-71
2021/12/26 09:39:53;;;;;;;4.75;3.92;;;4.00;99.90;;;;;;468425;254;28797;-68
2021/12/26 09:41:52;;;;;;;4.60;3.80;;;4.10;99.90;;;;;;469903;249;27496;-69
2021/12/26 09:43:54;;;;;;;4.12;3.75;;;4.20;99.90;;;;;;472653;247;28077;-69
2021/12/26 09:45:56;;;;;;;3.87;3.50;;;4.20;99.90;;;;;;474931;247;27606;-70
2021/12/26 09:47:59;;;;;;;4.87;4.32;;;4.10;99.90;;;;;;468916;250;27498;-68
2021/12/26 09:49:58;;;;;;;4.87;4.37;;;4.10;99.90;;;;;;475593;247;27527;-69
2021/12/26 09:52:03;;;;;;;4.68;4.20;;;4.20;99.90;;;;;;472859;249;27448;-69
2021/12/26 09:54:04;;;;;;;4.68;3.90;;;4.20;99.90;;;;;;474063;250;27416;-69
2021/12/26 09:56:06;;;;;;;5.00;4.25;;;4.30;99.90;;;;;;475326;247;27898;-69
2021/12/26 09:58:07;;;;;;;4.30;3.83;;;4.30;99.90;;;;;;471546;247;27487;-69
2021/12/26 10:00:11;;;;;;;4.90;4.40;;;4.30;99.90;;;;;;467789;252;27461;-69
2021/12/26 10:02:10;;;;;;;5.18;3.83;;;4.30;99.90;;;;;;475264;246;27910;-69
2021/12/26 10:04:11;;;;;;;4.35;3.95;;;4.20;99.90;;;;;;463294;253;27502;-70
2021/12/26 10:06:17;;;;;;;5.25;4.32;;;4.20;99.90;;;;;;471817;249;27991;-69
2021/12/26 10:08:15;;;;;;;4.80;4.25;;;4.20;99.90;;;;;;471377;249;27497;-69
2021/12/26 10:10:17;;;;;;;5.10;4.60;;;4.10;99.90;;;;;;472093;248;27502;-69
2021/12/26 10:12:19;;;;;;;5.18;4.05;;;4.20;99.90;;;;;;472533;250;27761;-70
2021/12/26 10:14:19;;;;;;;4.53;4.00;;;4.20;99.90;;;;;;467881;250;28048;-69
2021/12/26 10:16:21;;;;;;;4.30;3.90;;;4.30;99.90;;;;;;466463;255;28058;-69
2021/12/26 10:18:25;;;;;;;4.20;3.83;;;4.40;99.90;;;;;;466467;255;28153;-69
2021/12/26 10:20:26;;;;;;;4.12;3.75;;;4.40;99.90;;;;;;466477;255;27582;-69
2021/12/26 10:22:29;;;;;;;4.62;3.87;;;4.50;99.90;;;;;;466422;255;27540;-69
2021/12/26 10:24:29;;;;;;;4.12;3.67;;;4.40;99.90;;;;;;466360;255;28013;-69
2021/12/26 10:26:33;;;;;;;4.12;3.72;;;4.20;99.90;;;;;;466836;254;27979;-70
2021/12/26 10:28:32;;;;;;;4.43;3.70;;;4.20;99.90;;;;;;464469;256;27583;-69
2021/12/26 10:30:33;;;;;;;4.00;3.60;;;4.10;99.90;;;;;;473134;251;27458;-69
2021/12/26 10:32:37;;;;;;;4.82;4.20;;;4.10;99.90;;;;;;464747;256;28030;-72
2021/12/26 10:34:36;;;;;;;5.47;4.35;;;4.10;99.90;;;;;;472942;251;27477;-71
2021/12/26 10:36:37;;;;;;;3.55;3.25;;;4.10;99.90;;;;;;464785;256;27651;-71